Time;durP1;ratioP1;P1;durP2;ratioP2;P2;SDS_P1;SDS_P2;PMS_P1;PMS_P2;Temp;Humidity;BMP_temperature;BMP_pressure;BME280_temperature;BME280_humidity;BME280_pressure;Samples;Min_cycle;Max_cycle;Signal;HPM_P1;HPM_P2
2022/12/05 00:01:33;;;;;;;0.30;0.30;;;3.90;99.90;;;;;;4958042;28;20531;-68
2022/12/05 00:04:01;;;;;;;0.55;0.55;;;3.90;99.90;;;;;;4957812;28;20495;-68
2022/12/05 00:06:29;;;;;;;0.50;0.50;;;4.00;99.90;;;;;;4957916;28;20207;-68
2022/12/05 00:08:55;;;;;;;4.55;0.73;;;4.00;99.90;;;;;;4957772;28;20181;-68
2022/12/05 00:11:24;;;;;;;1.23;1.02;;;4.00;99.90;;;;;;4957809;28;20205;-68
2022/12/05 00:13:52;;;;;;;0.75;0.60;;;4.00;99.90;;;;;;4957953;28;20252;-68
2022/12/05 00:16:20;;;;;;;0.30;0.30;;;4.10;99.90;;;;;;4957609;28;20205;-68
2022/12/05 00:18:46;;;;;;;1.25;1.15;;;4.10;99.90;;;;;;4957651;28;20184;-68
2022/12/05 00:21:32;;;;;;;0.30;0.30;;;4.10;99.90;;;;;;4957729;28;20549;-68
2022/12/05 00:23:59;;;;;;;0.40;0.40;;;4.00;99.90;;;;;;4957776;28;20177;-68
2022/12/05 00:26:25;;;;;;;1.75;1.63;;;4.00;99.90;;;;;;4956098;28;20244;-68
2022/12/05 00:28:52;;;;;;;0.60;0.60;;;4.00;99.90;;;;;;4957413;28;20185;-67
2022/12/05 00:31:20;;;;;;;0.63;0.63;;;3.90;99.90;;;;;;4957327;28;20571;-68
2022/12/05 00:33:47;;;;;;;0.45;0.45;;;4.00;99.90;;;;;;4957434;28;20532;-68
2022/12/05 00:36:16;;;;;;;0.75;0.75;;;4.00;99.90;;;;;;4957154;28;20217;-68
2022/12/05 00:38:42;;;;;;;0.70;0.70;;;3.90;99.90;;;;;;4957296;28;20193;-68
2022/12/05 00:41:13;;;;;;;0.30;0.30;;;3.90;99.90;;;;;;4957374;28;20256;-68
2022/12/05 00:43:39;;;;;;;0.60;0.52;;;3.90;99.90;;;;;;4957443;28;20177;-68
2022/12/05 00:46:07;;;;;;;0.32;0.32;;;3.90;99.90;;;;;;4956979;28;20185;-68
2022/12/05 00:48:34;;;;;;;1.17;1.00;;;3.80;99.90;;;;;;4957061;28;20186;-68
2022/12/05 00:51:14;;;;;;;0.30;0.30;;;3.80;99.90;;;;;;4957062;28;20284;-68
2022/12/05 00:53:40;;;;;;;0.80;0.80;;;3.90;99.90;;;;;;4956943;28;20229;-68
2022/12/05 00:56:09;;;;;;;0.30;0.30;;;3.80;99.90;;;;;;4955824;28;20217;-68
2022/12/05 00:58:36;;;;;;;0.43;0.43;;;3.70;99.90;;;;;;4956859;28;20173;-67
2022/12/05 01:01:07;;;;;;;1.33;1.33;;;3.70;99.90;;;;;;4956941;28;20678;-68
2022/12/05 01:03:33;;;;;;;0.30;0.30;;;3.70;99.90;;;;;;4956952;28;20337;-67
2022/12/05 01:05:59;;;;;;;0.40;0.40;;;3.80;99.90;;;;;;4956509;28;20670;-68
2022/12/05 01:08:25;;;;;;;0.63;0.63;;;3.90;99.90;;;;;;4956666;28;20177;-67
2022/12/05 01:10:56;;;;;;;0.30;0.30;;;3.80;99.90;;;;;;4957018;28;20204;-67
2022/12/05 01:13:23;;;;;;;0.90;0.90;;;3.90;99.90;;;;;;4956810;28;20612;-68
2022/12/05 01:15:48;;;;;;;0.30;0.30;;;3.90;99.90;;;;;;4956587;28;20547;-68
2022/12/05 01:18:14;;;;;;;0.40;0.40;;;3.30;99.90;;;;;;4956601;28;20185;-68
2022/12/05 01:20:41;;;;;;;0.40;0.40;;;4.00;99.90;;;;;;4956665;28;20707;-68
2022/12/05 01:23:06;;;;;;;1.15;1.15;;;4.10;99.90;;;;;;4956387;28;20173;-67
2022/12/05 01:25:33;;;;;;;0.70;0.70;;;4.10;99.90;;;;;;4956276;28;20264;-67
2022/12/05 01:27:59;;;;;;;1.70;1.60;;;4.10;99.90;;;;;;4956146;28;20215;-68
2022/12/05 01:30:24;;;;;;;0.40;0.40;;;4.10;99.90;;;;;;4956315;28;20205;-68
2022/12/05 01:32:50;;;;;;;1.27;1.10;;;4.00;99.90;;;;;;4955178;29;20170;-68
2022/12/05 01:35:16;;;;;;;0.73;0.53;;;4.00;99.90;;;;;;4956085;28;20169;-68
2022/12/05 01:37:41;;;;;;;0.70;0.70;;;4.10;99.90;;;;;;4956774;28;20217;-68
2022/12/05 01:40:08;;;;;;;0.60;0.60;;;4.20;99.90;;;;;;4956078;28;20541;-68
2022/12/05 01:42:33;;;;;;;0.40;0.40;;;4.20;99.90;;;;;;4956128;28;20181;-68
2022/12/05 01:45:05;;;;;;;0.30;0.30;;;4.30;99.90;;;;;;4956035;28;20265;-68
2022/12/05 01:47:34;;;;;;;0.55;0.55;;;4.30;99.90;;;;;;4955922;28;20196;-68
2022/12/05 01:50:00;;;;;;;0.57;0.57;;;4.40;99.90;;;;;;4955879;28;20202;-68
2022/12/05 01:52:28;;;;;;;0.40;0.40;;;4.40;99.90;;;;;;4955941;28;20514;-68
2022/12/05 01:54:58;;;;;;;0.47;0.47;;;4.40;99.90;;;;;;4955879;28;20490;-68
2022/12/05 01:57:24;;;;;;;0.60;0.57;;;4.30;99.90;;;;;;4955938;28;20231;-68
2022/12/05 01:59:54;;;;;;;0.40;0.40;;;4.30;99.90;;;;;;4955981;28;20173;-68
2022/12/05 02:02:20;;;;;;;0.55;0.55;;;4.30;99.90;;;;;;4955957;28;20174;-68
2022/12/05 02:05:16;;;;;;;0.40;0.40;;;4.40;99.90;;;;;;4955992;28;20204;-68
2022/12/05 02:07:42;;;;;;;2.63;2.45;;;4.40;99.90;;;;;;4955681;28;20612;-68
2022/12/05 02:10:09;;;;;;;0.40;0.40;;;4.40;99.90;;;;;;4955876;28;20208;-68
2022/12/05 02:12:35;;;;;;;2.13;2.03;;;4.40;99.90;;;;;;4955805;28;20669;-68
2022/12/05 02:15:25;;;;;;;1.48;1.27;;;4.30;99.90;;;;;;4955557;28;20184;-68
2022/12/05 02:18:07;;;;;;;0.57;0.57;;;4.20;99.90;;;;;;4955415;28;20196;-68
2022/12/05 02:20:43;;;;;;;0.85;0.82;;;4.30;99.90;;;;;;4955698;28;20232;-67
2022/12/05 02:23:23;;;;;;;0.43;0.43;;;4.40;99.90;;;;;;4955495;28;20541;-67
2022/12/05 02:25:53;;;;;;;0.40;0.40;;;4.40;99.90;;;;;;4955287;28;20527;-68
2022/12/05 02:28:43;;;;;;;1.20;1.15;;;4.50;99.90;;;;;;4955524;28;20248;-68
2022/12/05 02:31:26;;;;;;;0.73;0.73;;;4.40;99.90;;;;;;4955484;29;20199;-68
2022/12/05 02:34:18;;;;;;;0.50;0.50;;;4.40;99.90;;;;;;4955382;28;20173;-68
2022/12/05 02:36:47;;;;;;;0.38;0.38;;;4.50;99.90;;;;;;4954138;28;20235;-68
2022/12/05 02:39:16;;;;;;;1.70;1.60;;;4.40;99.90;;;;;;4955309;28;20177;-68
2022/12/05 02:41:48;;;;;;;0.30;0.30;;;4.50;99.90;;;;;;4955492;28;20177;-68
2022/12/05 02:44:22;;;;;;;1.02;1.02;;;4.60;99.90;;;;;;4955267;28;20260;-69
2022/12/05 02:46:51;;;;;;;1.33;1.23;;;4.70;99.90;;;;;;4955429;28;20208;-68
2022/12/05 02:49:21;;;;;;;0.45;0.45;;;4.60;99.90;;;;;;4955164;28;20228;-68
2022/12/05 02:51:51;;;;;;;0.60;0.60;;;4.60;99.90;;;;;;4955613;28;20235;-68
2022/12/05 02:54:23;;;;;;;0.40;0.40;;;4.60;99.90;;;;;;4955261;28;20217;-68
2022/12/05 02:56:51;;;;;;;0.60;0.60;;;4.60;99.90;;;;;;4954125;28;20208;-68
2022/12/05 02:59:16;;;;;;;0.40;0.40;;;4.60;99.90;;;;;;4955404;28;20260;-68
2022/12/05 03:01:45;;;;;;;0.30;0.30;;;4.60;99.90;;;;;;4955120;28;20268;-68
2022/12/05 03:04:13;;;;;;;0.85;0.57;;;4.60;99.90;;;;;;4954917;28;20170;-68
2022/12/05 03:06:47;;;;;;;0.52;0.52;;;4.60;99.90;;;;;;4955120;28;20539;-68
2022/12/05 03:09:20;;;;;;;1.15;1.05;;;4.60;99.90;;;;;;4955116;28;20223;-68
2022/12/05 03:11:55;;;;;;;0.52;0.52;;;4.60;99.90;;;;;;4955263;28;20585;-68
2022/12/05 03:14:32;;;;;;;0.35;0.35;;;4.60;99.90;;;;;;4955131;28;20173;-68
2022/12/05 03:17:03;;;;;;;0.30;0.30;;;4.70;99.90;;;;;;4955119;28;20197;-68
2022/12/05 03:19:57;;;;;;;0.55;0.55;;;4.70;99.90;;;;;;4958153;28;20158;-68
2022/12/05 03:22:41;;;;;;;0.30;0.30;;;4.70;99.90;;;;;;4958735;28;20232;-68
2022/12/05 03:25:10;;;;;;;0.50;0.40;;;4.70;99.90;;;;;;4958561;28;20256;-68
2022/12/05 03:27:49;;;;;;;0.40;0.40;;;4.70;99.90;;;;;;4958452;28;20573;-68
2022/12/05 03:30:21;;;;;;;0.60;0.60;;;4.60;99.90;;;;;;4958650;28;20255;-68
2022/12/05 03:33:08;;;;;;;1.00;1.00;;;4.60;99.90;;;;;;4958532;28;20166;-68
2022/12/05 03:35:46;;;;;;;0.30;0.30;;;4.70;99.90;;;;;;4958221;28;20173;-68
2022/12/05 03:38:20;;;;;;;0.40;0.40;;;4.60;99.90;;;;;;4958295;28;20266;-68
2022/12/05 03:40:48;;;;;;;0.35;0.35;;;4.50;99.90;;;;;;4958343;28;20173;-68
2022/12/05 03:43:33;;;;;;;0.30;0.30;;;4.40;99.90;;;;;;4958325;28;20197;-68
2022/12/05 03:46:23;;;;;;;0.50;0.50;;;4.50;99.90;;;;;;4958147;28;20177;-68
2022/12/05 03:49:01;;;;;;;0.40;0.40;;;4.60;99.90;;;;;;4958149;29;20173;-68
2022/12/05 03:51:52;;;;;;;0.40;0.40;;;4.60;99.90;;;;;;4958108;28;20201;-68
2022/12/05 03:54:44;;;;;;;0.50;0.50;;;4.70;99.90;;;;;;4958040;28;20174;-68
2022/12/05 03:57:24;;;;;;;1.85;0.95;;;4.70;99.90;;;;;;4950059;28;20268;-67
2022/12/05 03:59:58;;;;;;;0.98;0.98;;;4.70;99.90;;;;;;4958272;28;20633;-67
2022/12/05 04:02:26;;;;;;;0.40;0.40;;;4.60;99.90;;;;;;4958213;28;20168;-67
2022/12/05 04:05:05;;;;;;;0.30;0.30;;;4.60;99.90;;;;;;4957802;28;20162;-68
2022/12/05 04:07:34;;;;;;;0.40;0.40;;;4.60;99.90;;;;;;4958031;28;20584;-67
2022/12/05 04:10:05;;;;;;;0.47;0.40;;;4.60;99.90;;;;;;4957721;28;20673;-68
2022/12/05 04:12:33;;;;;;;0.40;0.40;;;4.50;99.90;;;;;;4957795;28;20229;-68
2022/12/05 04:15:04;;;;;;;1.88;1.77;;;4.60;99.90;;;;;;4957670;28;20177;-68
2022/12/05 04:18:06;;;;;;;0.30;0.30;;;4.70;99.90;;;;;;4957590;28;20203;-68
2022/12/05 04:23:26;;;;;;;0.40;0.40;;;4.70;99.90;;;;;;4957018;28;20198;-68
2022/12/05 04:26:17;;;;;;;0.40;0.40;;;4.70;99.90;;;;;;4956210;28;20248;-68
2022/12/05 04:28:57;;;;;;;0.30;0.30;;;4.60;99.90;;;;;;4957208;28;20272;-68
2022/12/05 04:31:34;;;;;;;0.73;0.73;;;4.50;99.90;;;;;;4957453;28;20208;-67
2022/12/05 04:34:07;;;;;;;0.80;0.80;;;4.60;99.90;;;;;;4957578;28;20174;-68
2022/12/05 04:36:45;;;;;;;0.40;0.40;;;4.60;99.90;;;;;;4957234;28;20280;-68
2022/12/05 04:39:45;;;;;;;0.60;0.60;;;4.70;99.90;;;;;;4957377;28;20305;-68
2022/12/05 04:42:23;;;;;;;0.45;0.45;;;4.70;99.90;;;;;;4956739;29;20549;-68
2022/12/05 04:44:53;;;;;;;0.40;0.40;;;4.70;99.90;;;;;;4957165;28;20236;-68
2022/12/05 04:47:23;;;;;;;0.50;0.50;;;4.60;99.90;;;;;;4957249;28;20201;-70
2022/12/05 04:49:50;;;;;;;0.47;0.47;;;4.60;99.90;;;;;;4956766;28;20180;-70
2022/12/05 04:52:16;;;;;;;0.50;0.50;;;4.70;99.90;;;;;;4957311;28;20173;-71
2022/12/05 04:55:07;;;;;;;0.45;0.45;;;5.50;99.90;;;;;;4957233;28;20225;-69
2022/12/05 04:57:41;;;;;;;0.40;0.40;;;6.50;99.90;;;;;;4946490;28;20221;-69
2022/12/05 05:00:07;;;;;;;0.45;0.45;;;7.50;99.90;;;;;;4957310;28;20185;-71
2022/12/05 05:02:49;;;;;;;0.90;0.90;;;8.20;99.90;;;;;;4957330;28;20272;-71
2022/12/05 05:05:18;;;;;;;0.50;0.40;;;8.80;99.30;;;;;;4956809;28;20547;-65
2022/12/05 05:07:52;;;;;;;1.58;1.48;;;9.30;98.20;;;;;;4956788;28;20557;-70
2022/12/05 05:10:30;;;;;;;0.57;0.57;;;9.40;95.30;;;;;;4956736;28;20286;-70
2022/12/05 05:12:55;;;;;;;0.50;0.50;;;9.00;93.30;;;;;;4957026;28;20170;-70
2022/12/05 05:15:21;;;;;;;0.63;0.63;;;8.30;93.10;;;;;;4956860;28;20180;-69
2022/12/05 05:17:47;;;;;;;1.07;1.07;;;7.80;93.50;;;;;;4957052;28;20216;-68
2022/12/05 05:20:25;;;;;;;0.67;0.67;;;7.20;93.90;;;;;;4957117;28;20664;-68
2022/12/05 05:22:53;;;;;;;0.40;0.40;;;6.70;94.70;;;;;;4956683;28;20588;-70
2022/12/05 05:25:20;;;;;;;1.02;0.80;;;6.30;95.40;;;;;;4956513;28;20527;-70
2022/12/05 05:27:50;;;;;;;0.95;0.85;;;6.00;96.00;;;;;;4957027;28;20593;-70
2022/12/05 05:30:17;;;;;;;0.55;0.55;;;5.80;96.70;;;;;;4956660;28;20248;-70
2022/12/05 05:32:43;;;;;;;0.60;0.60;;;5.40;97.20;;;;;;4956947;28;20185;-67
2022/12/05 05:35:10;;;;;;;2.00;0.70;;;5.30;97.80;;;;;;4956403;28;20184;-69
2022/12/05 05:37:36;;;;;;;0.40;0.40;;;5.10;98.40;;;;;;4956364;28;20436;-68
2022/12/05 05:40:03;;;;;;;1.23;0.47;;;5.20;98.90;;;;;;4956494;28;20173;-68
2022/12/05 05:42:28;;;;;;;0.40;0.40;;;5.10;99.00;;;;;;4956102;28;20209;-68
2022/12/05 05:44:54;;;;;;;0.40;0.40;;;5.00;99.20;;;;;;4955903;28;20174;-68
2022/12/05 05:47:20;;;;;;;0.80;0.60;;;4.90;99.40;;;;;;4956190;28;20193;-70
2022/12/05 05:49:45;;;;;;;0.30;0.30;;;4.70;99.80;;;;;;4954767;29;20514;-68
2022/12/05 05:52:11;;;;;;;2.73;2.63;;;4.60;99.90;;;;;;4956025;28;20232;-68
2022/12/05 05:54:37;;;;;;;0.80;0.80;;;4.50;99.90;;;;;;4955876;28;20178;-67
2022/12/05 05:57:03;;;;;;;0.77;0.77;;;4.50;99.90;;;;;;4956237;28;20197;-68
2022/12/05 05:59:28;;;;;;;1.40;1.40;;;4.70;99.90;;;;;;4956422;28;20876;-68
2022/12/05 06:01:54;;;;;;;0.40;0.40;;;4.70;99.90;;;;;;4956485;28;20209;-68
2022/12/05 06:04:19;;;;;;;1.93;1.83;;;4.70;99.90;;;;;;4955863;28;20181;-68
2022/12/05 06:06:45;;;;;;;0.30;0.30;;;4.70;99.90;;;;;;4956085;28;20197;-68
2022/12/05 06:09:12;;;;;;;0.50;0.50;;;4.70;99.90;;;;;;4956065;28;20233;-68
2022/12/05 06:11:38;;;;;;;0.40;0.40;;;4.70;99.90;;;;;;4956282;28;20194;-68
2022/12/05 06:14:04;;;;;;;0.40;0.40;;;4.70;99.90;;;;;;4955230;28;20228;-68
2022/12/05 06:16:30;;;;;;;0.60;0.60;;;4.70;99.90;;;;;;4955731;28;20285;-68
2022/12/05 06:18:57;;;;;;;0.40;0.40;;;4.70;99.90;;;;;;4955475;28;20193;-68
2022/12/05 06:21:23;;;;;;;0.93;0.93;;;4.70;99.90;;;;;;4955582;28;20189;-67
2022/12/05 06:23:49;;;;;;;0.70;0.70;;;4.70;99.90;;;;;;4955852;28;20174;-68
2022/12/05 06:26:18;;;;;;;4.00;1.17;;;4.70;99.90;;;;;;4955366;28;20223;-67
2022/12/05 06:28:44;;;;;;;0.55;0.55;;;4.60;99.90;;;;;;4955363;28;20926;-68
2022/12/05 06:31:23;;;;;;;2.17;1.60;;;4.70;99.90;;;;;;4955319;28;20292;-68
2022/12/05 06:33:49;;;;;;;0.40;0.40;;;4.60;99.90;;;;;;4955891;28;20527;-68
2022/12/05 06:36:17;;;;;;;0.40;0.40;;;4.60;99.90;;;;;;4955148;28;20196;-68
2022/12/05 06:38:43;;;;;;;2.10;1.67;;;4.60;99.90;;;;;;4955395;28;20232;-68
2022/12/05 06:41:13;;;;;;;0.40;0.40;;;4.60;99.90;;;;;;4955585;28;20666;-68
2022/12/05 06:43:38;;;;;;;1.20;1.13;;;4.60;99.90;;;;;;4955480;28;20788;-67
2022/12/05 06:46:09;;;;;;;1.53;1.43;;;4.60;99.90;;;;;;4955077;28;20177;-68
2022/12/05 06:48:35;;;;;;;0.50;0.50;;;4.60;99.90;;;;;;4955390;28;20176;-68
2022/12/05 06:51:00;;;;;;;0.50;0.50;;;4.60;99.90;;;;;;4953266;29;20209;-68
2022/12/05 06:53:26;;;;;;;0.40;0.40;;;4.60;99.90;;;;;;4958918;28;20417;-67
2022/12/05 06:56:00;;;;;;;0.40;0.40;;;4.50;99.90;;;;;;4958730;28;20523;-68
2022/12/05 06:58:27;;;;;;;0.40;0.40;;;4.50;99.90;;;;;;4958918;28;20166;-68
2022/12/05 07:03:38;;;;;;;0.68;0.68;;;4.20;99.90;;;;;;4958217;29;20229;-68
2022/12/05 07:06:06;;;;;;;0.40;0.40;;;4.20;99.90;;;;;;4958906;28;20250;-68
2022/12/05 07:08:32;;;;;;;1.50;0.75;;;4.30;99.90;;;;;;4958950;28;20647;-68
2022/12/05 07:10:58;;;;;;;1.50;0.50;;;4.30;99.90;;;;;;4958928;28;20284;-68
2022/12/05 07:13:24;;;;;;;0.40;0.40;;;4.40;99.90;;;;;;4958971;28;20647;-68
2022/12/05 07:15:51;;;;;;;1.35;1.30;;;4.40;99.90;;;;;;4958627;28;20216;-68
2022/12/05 07:18:17;;;;;;;0.30;0.30;;;4.40;99.90;;;;;;4958892;28;20178;-68
2022/12/05 07:20:43;;;;;;;1.08;0.95;;;4.50;99.90;;;;;;4958757;28;20189;-68
2022/12/05 07:23:09;;;;;;;0.40;0.40;;;4.50;99.90;;;;;;4957524;29;20192;-68
2022/12/05 07:25:39;;;;;;;0.60;0.50;;;4.50;99.90;;;;;;4958494;28;20174;-68
2022/12/05 07:28:05;;;;;;;0.70;0.70;;;4.40;99.90;;;;;;4958319;28;20213;-68
2022/12/05 07:30:31;;;;;;;0.50;0.50;;;4.40;99.90;;;;;;4958692;28;20201;-68
2022/12/05 07:32:57;;;;;;;0.40;0.40;;;4.30;99.90;;;;;;4958100;28;20177;-70
2022/12/05 07:35:22;;;;;;;1.03;1.00;;;4.20;99.90;;;;;;4958091;28;20173;-69
2022/12/05 07:37:48;;;;;;;0.40;0.40;;;4.20;99.90;;;;;;4958090;28;20189;-70
2022/12/05 07:40:14;;;;;;;0.50;0.50;;;4.30;99.90;;;;;;4958484;28;20208;-70
2022/12/05 07:42:39;;;;;;;0.63;0.63;;;4.40;99.90;;;;;;4956659;29;20718;-70
2022/12/05 07:45:05;;;;;;;1.30;1.20;;;4.60;99.90;;;;;;4958338;28;20419;-70
2022/12/05 07:47:31;;;;;;;0.60;0.60;;;4.60;99.90;;;;;;4958252;28;20248;-70
2022/12/05 07:49:57;;;;;;;1.77;1.67;;;4.70;99.90;;;;;;4955549;29;20181;-70
2022/12/05 07:52:22;;;;;;;2.80;2.70;;;4.70;99.90;;;;;;4958820;28;20177;-70
2022/12/05 07:54:48;;;;;;;1.47;1.47;;;4.70;99.90;;;;;;4957944;28;20643;-70
2022/12/05 07:57:14;;;;;;;0.73;0.73;;;4.60;99.90;;;;;;4957987;28;20428;-70
2022/12/05 07:59:39;;;;;;;1.27;1.17;;;4.70;99.90;;;;;;4958026;28;20177;-70
2022/12/05 08:02:05;;;;;;;1.00;1.00;;;4.70;99.90;;;;;;4958331;28;20516;-70
2022/12/05 08:04:31;;;;;;;0.40;0.40;;;4.60;99.90;;;;;;4956755;28;20177;-70
2022/12/05 08:06:56;;;;;;;1.00;1.00;;;4.70;99.90;;;;;;4958155;28;20217;-70
2022/12/05 08:09:22;;;;;;;0.40;0.40;;;4.60;99.90;;;;;;4958343;28;20216;-70
2022/12/05 08:11:47;;;;;;;0.43;0.43;;;4.60;99.90;;;;;;4957883;28;20207;-70
2022/12/05 08:14:13;;;;;;;0.40;0.40;;;4.70;99.90;;;;;;4957859;28;20169;-70
2022/12/05 08:16:39;;;;;;;1.10;0.70;;;4.80;99.90;;;;;;4958095;28;20599;-70
2022/12/05 08:19:07;;;;;;;0.30;0.30;;;4.80;99.90;;;;;;4958257;28;20168;-70
2022/12/05 08:21:33;;;;;;;0.50;0.50;;;4.80;99.90;;;;;;4958272;28;20184;-69
2022/12/05 08:23:59;;;;;;;0.30;0.30;;;4.80;99.90;;;;;;4957899;28;20186;-70
2022/12/05 08:26:28;;;;;;;0.90;0.90;;;4.80;99.90;;;;;;4956024;28;20194;-70
2022/12/05 08:29:02;;;;;;;0.85;0.85;;;4.80;99.90;;;;;;4957905;28;20397;-69
2022/12/05 08:31:31;;;;;;;0.40;0.40;;;4.90;99.90;;;;;;4957591;28;20323;-70
2022/12/05 08:33:58;;;;;;;5.78;2.35;;;4.90;99.90;;;;;;4957873;28;20169;-70
2022/12/05 08:36:25;;;;;;;3.88;3.67;;;5.00;99.90;;;;;;4956207;28;20197;-70
2022/12/05 08:38:55;;;;;;;1.10;1.10;;;5.10;99.90;;;;;;4957290;28;20176;-70
2022/12/05 08:41:21;;;;;;;0.30;0.30;;;5.10;99.90;;;;;;4957602;28;20186;-70
2022/12/05 08:43:47;;;;;;;1.73;1.30;;;5.20;99.90;;;;;;4956565;28;20256;-70
2022/12/05 08:46:13;;;;;;;1.23;1.23;;;5.10;99.90;;;;;;4956911;28;20477;-70
2022/12/05 08:48:38;;;;;;;0.50;0.50;;;5.00;99.90;;;;;;4957102;28;20173;-70
2022/12/05 08:51:10;;;;;;;0.70;0.70;;;5.00;99.90;;;;;;4957217;28;20205;-70
2022/12/05 08:53:37;;;;;;;0.50;0.50;;;4.90;99.90;;;;;;4955775;29;20270;-69
2022/12/05 08:56:05;;;;;;;0.40;0.40;;;4.90;99.90;;;;;;4956873;28;20178;-69
2022/12/05 08:58:31;;;;;;;0.40;0.40;;;4.90;99.90;;;;;;4957040;28;20185;-70
2022/12/05 09:01:07;;;;;;;0.38;0.38;;;5.00;99.90;;;;;;4957071;28;20190;-70
2022/12/05 09:03:33;;;;;;;0.75;0.75;;;5.10;99.90;;;;;;4956922;28;20178;-68
2022/12/05 09:06:20;;;;;;;0.32;0.32;;;5.30;99.90;;;;;;4955161;28;20627;-67
2022/12/05 09:08:46;;;;;;;0.50;0.50;;;5.40;99.90;;;;;;4957252;28;20166;-67
2022/12/05 09:11:20;;;;;;;1.90;1.80;;;5.40;99.90;;;;;;4957203;28;20217;-68
2022/12/05 09:13:47;;;;;;;0.70;0.60;;;5.50;99.90;;;;;;4956580;28;20568;-67
2022/12/05 09:16:19;;;;;;;0.30;0.30;;;5.60;99.60;;;;;;4955331;28;20662;-68
2022/12/05 09:18:45;;;;;;;2.35;0.60;;;5.70;99.30;;;;;;4956857;28;20178;-67
2022/12/05 09:21:13;;;;;;;1.40;1.30;;;5.70;99.30;;;;;;4956485;28;20184;-67
2022/12/05 09:23:40;;;;;;;0.75;0.75;;;5.70;99.20;;;;;;4956819;28;20232;-68
2022/12/05 09:26:08;;;;;;;0.40;0.40;;;5.70;99.10;;;;;;4956160;28;20543;-68
2022/12/05 09:28:34;;;;;;;1.17;1.17;;;5.70;99.20;;;;;;4956352;28;20213;-67
2022/12/05 09:31:02;;;;;;;0.67;0.67;;;5.80;99.50;;;;;;4956559;28;20203;-68
2022/12/05 09:33:30;;;;;;;1.05;0.80;;;6.00;99.60;;;;;;4956636;28;20409;-68
2022/12/05 09:35:56;;;;;;;0.30;0.30;;;6.20;99.40;;;;;;4956499;28;20530;-69
2022/12/05 09:38:44;;;;;;;2.47;0.55;;;6.40;99.50;;;;;;5091739;28;20905;-66
2022/12/05 09:44:18;;;;;;;0.40;0.40;;;6.50;98.20;;;;;;5091383;28;20181;-67
2022/12/05 09:46:54;;;;;;;0.30;0.30;;;6.40;98.00;;;;;;5091569;28;20551;-66
2022/12/05 09:49:22;;;;;;;0.30;0.30;;;6.50;98.10;;;;;;5090882;28;20550;-66
2022/12/05 09:51:49;;;;;;;0.60;0.60;;;6.40;98.10;;;;;;5090899;28;20178;-66
2022/12/05 09:54:16;;;;;;;0.88;0.85;;;6.30;97.40;;;;;;5090829;28;20634;-66
2022/12/05 09:56:44;;;;;;;1.25;1.15;;;6.30;97.80;;;;;;5090795;28;20287;-67
2022/12/05 09:59:19;;;;;;;1.30;1.10;;;6.30;97.60;;;;;;5091291;28;20170;-66
2022/12/05 10:01:47;;;;;;;0.77;0.77;;;6.40;97.40;;;;;;5091145;28;20207;-67
2022/12/05 10:04:50;;;;;;;0.68;0.68;;;6.40;96.80;;;;;;5088566;28;20205;-67
2022/12/05 10:07:30;;;;;;;0.98;0.98;;;6.20;96.30;;;;;;5090618;28;20220;-67
2022/12/05 10:10:20;;;;;;;0.80;0.60;;;6.20;96.90;;;;;;5090410;28;20191;-67
2022/12/05 10:12:45;;;;;;;0.40;0.40;;;6.30;97.00;;;;;;5090478;28;20170;-67
2022/12/05 10:15:32;;;;;;;0.50;0.50;;;6.30;96.90;;;;;;5090446;28;20225;-67
2022/12/05 10:18:23;;;;;;;0.98;0.80;;;6.40;96.60;;;;;;5090327;28;20241;-67
2022/12/05 10:21:17;;;;;;;0.50;0.50;;;6.20;96.30;;;;;;5089298;28;20248;-67
2022/12/05 10:23:54;;;;;;;0.90;0.65;;;6.10;96.80;;;;;;5090305;28;20583;-67
2022/12/05 10:26:21;;;;;;;0.30;0.30;;;6.10;97.30;;;;;;5089960;28;20217;-67
2022/12/05 10:28:57;;;;;;;0.40;0.40;;;6.10;97.20;;;;;;5090331;28;20662;-67
2022/12/05 10:31:29;;;;;;;0.40;0.40;;;6.20;97.20;;;;;;5090093;28;20181;-67
2022/12/05 10:34:16;;;;;;;1.67;0.60;;;6.20;97.10;;;;;;5090069;28;20711;-67
2022/12/05 10:37:14;;;;;;;0.98;0.98;;;6.20;97.20;;;;;;5088608;28;20276;-67
2022/12/05 10:39:40;;;;;;;0.30;0.30;;;6.30;96.90;;;;;;5089648;28;20178;-67
2022/12/05 10:42:12;;;;;;;1.08;1.08;;;6.50;97.10;;;;;;5090030;28;20520;-67
2022/12/05 10:44:38;;;;;;;0.70;0.70;;;6.70;96.80;;;;;;5089688;28;20659;-67
2022/12/05 10:47:05;;;;;;;6.82;1.90;;;6.90;96.60;;;;;;5089746;28;20199;-67
2022/12/05 10:49:31;;;;;;;0.40;0.40;;;7.00;95.90;;;;;;5077996;28;20167;-67
2022/12/05 10:51:58;;;;;;;0.98;0.98;;;7.10;95.90;;;;;;5074893;28;20705;-67
2022/12/05 10:54:28;;;;;;;2.35;1.80;;;7.00;95.60;;;;;;5076181;28;20725;-67
2022/12/05 10:56:54;;;;;;;3.05;0.63;;;6.90;95.70;;;;;;5076046;28;20600;-67
2022/12/05 10:59:25;;;;;;;0.40;0.40;;;6.80;96.10;;;;;;5076052;28;20163;-67
2022/12/05 11:01:55;;;;;;;0.45;0.45;;;6.70;96.60;;;;;;5076187;28;20167;-67
2022/12/05 11:04:28;;;;;;;2.83;2.58;;;6.80;97.00;;;;;;5074520;28;20172;-67
2022/12/05 11:07:03;;;;;;;3.45;2.50;;;6.80;96.70;;;;;;5074537;28;20196;-67
2022/12/05 11:09:35;;;;;;;1.60;1.20;;;6.90;96.50;;;;;;5076120;28;20273;-67
2022/12/05 11:12:21;;;;;;;1.25;0.95;;;6.90;96.30;;;;;;5074618;28;20180;-67
2022/12/05 11:15:03;;;;;;;1.75;0.85;;;6.90;96.20;;;;;;5075684;28;20225;-67
2022/12/05 11:17:30;;;;;;;0.55;0.55;;;6.90;96.60;;;;;;5075794;28;20196;-67
2022/12/05 11:19:56;;;;;;;2.13;1.45;;;6.90;95.80;;;;;;5075746;28;20182;-67
2022/12/05 11:22:31;;;;;;;1.17;1.17;;;6.90;95.90;;;;;;5075462;28;20529;-66
2022/12/05 11:24:56;;;;;;;0.40;0.40;;;6.70;96.20;;;;;;5075573;28;20171;-66
2022/12/05 11:27:31;;;;;;;0.80;0.50;;;6.60;96.70;;;;;;5075333;28;20342;-67
2022/12/05 11:30:18;;;;;;;3.20;1.70;;;6.60;96.60;;;;;;5075570;28;20245;-67
2022/12/05 11:32:44;;;;;;;0.82;0.82;;;6.60;96.70;;;;;;5075562;28;20180;-67
2022/12/05 11:35:12;;;;;;;0.40;0.40;;;6.50;96.60;;;;;;5075325;28;20180;-67
2022/12/05 11:37:47;;;;;;;0.47;0.47;;;6.30;96.60;;;;;;5075064;28;20468;-67
2022/12/05 11:40:30;;;;;;;0.70;0.70;;;6.20;96.70;;;;;;5075316;28;20166;-67
2022/12/05 11:43:14;;;;;;;0.82;0.82;;;6.20;96.80;;;;;;5075219;28;20164;-67
2022/12/05 11:46:16;;;;;;;1.33;1.33;;;6.20;97.00;;;;;;5074801;28;20165;-67
2022/12/05 11:48:56;;;;;;;11.65;3.90;;;6.30;96.90;;;;;;5074876;28;20171;-67
2022/12/05 11:51:25;;;;;;;2.58;2.47;;;6.40;96.70;;;;;;5075021;28;20246;-68
2022/12/05 11:54:08;;;;;;;0.40;0.40;;;6.40;96.90;;;;;;5075592;28;20248;-67
2022/12/05 11:56:37;;;;;;;3.40;1.10;;;6.30;96.70;;;;;;5075094;28;20293;-67
2022/12/05 11:59:31;;;;;;;0.68;0.68;;;6.20;96.60;;;;;;5074975;28;20170;-67
2022/12/05 12:02:02;;;;;;;0.60;0.60;;;6.10;97.00;;;;;;5074575;28;20208;-67
2022/12/05 12:04:36;;;;;;;0.85;0.63;;;6.10;96.40;;;;;;5074767;28;20168;-67
2022/12/05 12:07:20;;;;;;;0.50;0.47;;;6.10;96.10;;;;;;5074892;28;20194;-66
2022/12/05 12:10:00;;;;;;;2.65;2.00;;;6.10;96.30;;;;;;5075064;28;20200;-67
2022/12/05 12:12:43;;;;;;;1.15;1.15;;;6.20;96.50;;;;;;5074774;28;20197;-67
2022/12/05 12:15:33;;;;;;;0.40;0.40;;;6.20;96.60;;;;;;5074645;28;20523;-67
2022/12/05 12:18:30;;;;;;;3.33;2.05;;;6.20;96.70;;;;;;5073975;28;20202;-67
2022/12/05 12:21:31;;;;;;;0.50;0.50;;;6.20;96.60;;;;;;5073383;28;20270;-67
2022/12/05 12:24:26;;;;;;;0.98;0.98;;;6.30;96.50;;;;;;5074609;28;20168;-69
2022/12/05 12:27:01;;;;;;;0.50;0.50;;;6.60;96.60;;;;;;5073966;28;20206;-67
2022/12/05 12:29:45;;;;;;;0.40;0.40;;;6.70;95.30;;;;;;5074245;28;20248;-67
2022/12/05 12:32:13;;;;;;;0.50;0.50;;;6.70;95.10;;;;;;5074280;28;20180;-67
2022/12/05 12:34:59;;;;;;;4.32;2.05;;;6.40;95.10;;;;;;5074011;28;20172;-67
2022/12/05 12:37:55;;;;;;;1.58;0.80;;;6.50;95.60;;;;;;5074035;28;20211;-67
2022/12/05 12:40:38;;;;;;;1.00;0.60;;;6.70;95.90;;;;;;5074212;28;20166;-67
2022/12/05 12:43:12;;;;;;;1.30;1.30;;;6.80;95.30;;;;;;5074332;28;20174;-67
2022/12/05 12:45:50;;;;;;;2.95;1.45;;;6.80;95.30;;;;;;5073842;28;20167;-67
2022/12/05 12:48:48;;;;;;;0.77;0.77;;;6.70;94.20;;;;;;5073829;28;20195;-67
2022/12/05 12:51:14;;;;;;;1.42;1.40;;;6.70;94.50;;;;;;5073150;28;20687;-67
2022/12/05 12:53:56;;;;;;;1.15;0.93;;;6.80;94.30;;;;;;5073794;28;20180;-67
2022/12/05 12:56:49;;;;;;;1.85;1.02;;;6.80;94.10;;;;;;5072313;28;20215;-67
2022/12/05 12:59:39;;;;;;;0.60;0.60;;;7.00;94.60;;;;;;5073841;28;20176;-67
2022/12/05 13:02:23;;;;;;;1.23;1.13;;;7.10;94.20;;;;;;5073836;28;20218;-67
2022/12/05 13:05:07;;;;;;;0.50;0.50;;;7.30;93.60;;;;;;5073593;28;20166;-67
2022/12/05 13:07:43;;;;;;;0.50;0.50;;;7.40;92.70;;;;;;5073723;28;20191;-67
2022/12/05 13:10:32;;;;;;;0.50;0.50;;;7.40;92.50;;;;;;5073731;28;20702;-67
2022/12/05 13:13:00;;;;;;;0.30;0.30;;;7.50;92.80;;;;;;5073396;28;20214;-67
2022/12/05 13:15:53;;;;;;;0.30;0.30;;;7.60;92.70;;;;;;5073388;28;20205;-67
2022/12/05 13:18:21;;;;;;;0.93;0.60;;;7.60;92.80;;;;;;5073058;28;20295;-67
2022/12/05 13:20:50;;;;;;;0.40;0.40;;;7.40;92.80;;;;;;5073647;28;20168;-67
2022/12/05 13:23:19;;;;;;;0.93;0.93;;;7.40;92.80;;;;;;5073712;28;20525;-66
2022/12/05 13:25:47;;;;;;;0.40;0.40;;;7.50;93.10;;;;;;5073276;28;20175;-67
2022/12/05 13:28:34;;;;;;;0.60;0.50;;;7.50;93.20;;;;;;5073325;28;20192;-67
2022/12/05 13:31:02;;;;;;;0.40;0.40;;;7.40;92.30;;;;;;5074062;28;20210;-67
2022/12/05 13:33:35;;;;;;;0.77;0.77;;;7.20;92.20;;;;;;5073611;28;20541;-67